createdAt,value
2023-01-17T00:00:59.705Z,0
2023-01-17T00:01:59.900Z,0
2023-01-17T00:02:59.906Z,0
2023-01-17T00:04:00.126Z,0
2023-01-17T00:04:59.523Z,0
2023-01-17T00:05:59.767Z,0
2023-01-17T00:06:59.778Z,0
2023-01-17T00:07:59.583Z,0
2023-01-17T00:08:59.589Z,0
2023-01-17T00:09:59.688Z,0
2023-01-17T00:10:59.360Z,0
2023-01-17T00:11:59.912Z,0
2023-01-17T00:12:59.898Z,0
2023-01-17T00:13:59.619Z,0
2023-01-17T00:14:59.899Z,0
2023-01-17T00:16:00.155Z,0
2023-01-17T00:16:59.935Z,0
2023-01-17T00:17:59.739Z,0
2023-01-17T00:18:59.965Z,0
2023-01-17T00:20:00.175Z,0
2023-01-17T00:20:59.745Z,0
2023-01-17T00:22:00.099Z,0
2023-01-17T00:23:00.042Z,0
2023-01-17T00:23:59.811Z,0
2023-01-17T00:25:00.044Z,0
2023-01-17T00:26:00.062Z,0
2023-01-17T00:26:59.823Z,0
2023-01-17T00:28:00.122Z,0
2023-01-17T00:29:00.134Z,0
2023-01-17T00:29:59.853Z,0
2023-01-17T00:31:00.190Z,0
2023-01-17T00:32:00.148Z,0
2023-01-17T00:33:00.181Z,0
2023-01-17T00:34:00.180Z,0
2023-01-17T00:35:00.211Z,0
2023-01-17T00:36:00.360Z,0
2023-01-17T00:36:59.953Z,0
2023-01-17T00:37:59.975Z,0
2023-01-17T00:39:00.258Z,0
2023-01-17T00:40:00.027Z,0
2023-01-17T00:41:00.049Z,0
2023-01-17T00:42:00.042Z,0
2023-01-17T00:43:00.296Z,0
2023-01-17T00:43:59.561Z,0
2023-01-17T00:45:00.149Z,0
2023-01-17T00:46:00.370Z,0
2023-01-17T00:47:00.125Z,0
2023-01-17T00:48:01.558Z,0
2023-01-17T00:48:59.891Z,0
2023-01-17T00:50:00.415Z,0
2023-01-17T00:51:00.212Z,0
2023-01-17T00:52:00.612Z,0
2023-01-17T00:53:00.447Z,0
2023-01-17T00:54:00.209Z,0
2023-01-17T00:54:59.996Z,0
2023-01-17T00:56:00.511Z,0
2023-01-17T00:57:00.507Z,0
2023-01-17T00:58:00.563Z,0
2023-01-17T00:59:00.018Z,0
2023-01-17T01:00:00.556Z,0
2023-01-17T01:01:00.615Z,0
2023-01-17T01:02:01.698Z,0
2023-01-17T01:03:00.622Z,0
2023-01-17T01:04:00.619Z,0
2023-01-17T01:05:00.382Z,0
2023-01-17T01:06:00.158Z,0
2023-01-17T01:07:00.427Z,0
2023-01-17T01:08:00.765Z,0
2023-01-17T01:09:00.431Z,0
2023-01-17T01:10:00.446Z,0
2023-01-17T01:11:00.713Z,0
2023-01-17T01:12:00.728Z,0
2023-01-17T01:13:00.506Z,0
2023-01-17T01:14:00.763Z,0
2023-01-17T01:15:00.773Z,0
2023-01-17T01:16:00.942Z,0
2023-01-17T01:17:00.827Z,0
2023-01-17T01:18:00.660Z,0
2023-01-17T01:19:00.600Z,0
2023-01-17T01:20:00.725Z,0
2023-01-17T01:21:00.886Z,0
2023-01-17T01:22:00.891Z,0
2023-01-17T01:23:00.637Z,0
2023-01-17T01:24:01.021Z,0
2023-01-17T01:25:01.105Z,0
2023-01-17T01:26:00.937Z,0
2023-01-17T01:27:00.703Z,0
2023-01-17T01:28:00.960Z,0
2023-01-17T01:29:00.989Z,0
2023-01-17T01:30:01.000Z,0
2023-01-17T01:31:00.504Z,0
2023-01-17T01:32:00.849Z,0
2023-01-17T01:33:00.531Z,0
2023-01-17T01:34:01.147Z,0
2023-01-17T01:35:00.825Z,0
2023-01-17T01:36:01.236Z,0
2023-01-17T01:37:00.845Z,0
2023-01-17T01:38:00.858Z,0
2023-01-17T01:39:01.131Z,0
2023-01-17T01:40:01.354Z,0
2023-01-17T01:41:00.901Z,0
2023-01-17T01:42:00.897Z,0
2023-01-17T01:43:01.186Z,0
2023-01-17T01:44:01.200Z,0
2023-01-17T01:45:00.974Z,0
2023-01-17T01:46:01.455Z,0
2023-01-17T01:47:01.239Z,0
2023-01-17T01:48:00.746Z,0
2023-01-17T01:49:01.329Z,0
2023-01-17T01:50:01.568Z,0
2023-01-17T01:51:00.831Z,0
2023-01-17T01:52:01.324Z,0
2023-01-17T01:53:01.340Z,0
2023-01-17T01:54:01.103Z,0
2023-01-17T01:55:01.369Z,0
2023-01-17T01:56:01.533Z,0
2023-01-17T01:57:01.393Z,0
2023-01-17T01:58:01.149Z,0
2023-01-17T01:59:01.417Z,0
2023-01-17T02:00:01.449Z,0
2023-01-17T02:01:02.027Z,0
2023-01-17T02:02:01.738Z,0
2023-01-17T02:03:01.233Z,0
2023-01-17T02:04:01.288Z,0
2023-01-17T02:05:04.479Z,0
2023-01-17T02:06:01.556Z,0
2023-01-17T02:07:01.531Z,0
2023-01-17T02:08:01.557Z,0
2023-01-17T02:09:01.050Z,0
2023-01-17T02:10:01.321Z,0
2023-01-17T02:11:01.075Z,0
2023-01-17T02:12:01.746Z,0
2023-01-17T02:13:01.641Z,0
2023-01-17T02:14:01.642Z,0
2023-01-17T02:15:01.146Z,0
2023-01-17T02:16:01.861Z,0
2023-01-17T02:17:01.716Z,0
2023-01-17T02:18:01.456Z,0
2023-01-17T02:19:01.457Z,0
2023-01-17T02:20:01.741Z,0
2023-01-17T02:21:01.493Z,0
2023-01-17T02:22:01.766Z,0
2023-01-17T02:23:01.815Z,0
2023-01-17T02:24:01.276Z,0
2023-01-17T02:25:01.827Z,0
2023-01-17T02:26:01.373Z,0
2023-01-17T02:27:01.591Z,0
2023-01-17T02:28:01.975Z,0
2023-01-17T02:29:01.997Z,0
2023-01-17T02:30:01.618Z,0
2023-01-17T02:31:01.909Z,0
2023-01-17T02:32:02.007Z,0
2023-01-17T02:33:01.931Z,0
2023-01-17T02:34:01.974Z,0
2023-01-17T02:35:01.703Z,0
2023-01-17T02:36:02.170Z,0
2023-01-17T02:37:01.989Z,0
2023-01-17T02:38:02.011Z,0
2023-01-17T02:39:01.763Z,0
2023-01-17T02:40:01.767Z,0
2023-01-17T02:41:01.778Z,0
2023-01-17T02:42:01.793Z,0
2023-01-17T02:43:01.540Z,0
2023-01-17T02:44:02.444Z,0
2023-01-17T02:45:01.826Z,0
2023-01-17T02:46:02.381Z,0
2023-01-17T02:47:01.926Z,0
2023-01-17T02:48:02.177Z,0
2023-01-17T02:49:01.889Z,0
2023-01-17T02:50:01.951Z,0
2023-01-17T02:51:02.201Z,0
2023-01-17T02:52:01.948Z,0
2023-01-17T02:53:02.209Z,0
2023-01-17T02:54:02.232Z,0
2023-01-17T02:55:01.728Z,0
2023-01-17T02:56:02.028Z,0
2023-01-17T02:57:02.272Z,0
2023-01-17T02:58:02.018Z,0
2023-01-17T02:59:02.312Z,0
2023-01-17T03:00:02.557Z,0
2023-01-17T03:01:02.304Z,0
2023-01-17T03:02:03.495Z,0
2023-01-17T03:03:02.096Z,0
2023-01-17T03:04:02.403Z,0
2023-01-17T03:05:02.137Z,0
2023-01-17T03:06:02.447Z,0
2023-01-17T03:07:02.168Z,0
2023-01-17T03:08:02.181Z,0
2023-01-17T03:09:02.449Z,0
2023-01-17T03:10:02.588Z,0
2023-01-17T03:11:02.513Z,0
2023-01-17T03:12:02.532Z,0
2023-01-17T03:13:02.271Z,0
2023-01-17T03:14:02.363Z,0
2023-01-17T03:15:02.548Z,0
2023-01-17T03:16:02.753Z,0
2023-01-17T03:17:02.378Z,0
2023-01-17T03:18:02.350Z,0
2023-01-17T03:19:02.323Z,0
2023-01-17T03:20:02.623Z,0
2023-01-17T03:21:02.640Z,0
2023-01-17T03:22:02.376Z,0
2023-01-17T03:23:02.655Z,0
2023-01-17T03:24:02.420Z,0
2023-01-17T03:25:02.678Z,0
2023-01-17T03:26:02.725Z,0
2023-01-17T03:27:02.263Z,0
2023-01-17T03:28:03.004Z,0
2023-01-17T03:29:02.515Z,0
2023-01-17T03:30:02.526Z,0
2023-01-17T03:31:03.075Z,0
2023-01-17T03:32:02.915Z,0
2023-01-17T03:33:02.919Z,0
2023-01-17T03:34:02.679Z,0
2023-01-17T03:35:02.967Z,0
2023-01-17T03:36:02.877Z,0
2023-01-17T03:37:02.957Z,0
2023-01-17T03:38:02.363Z,0
2023-01-17T03:39:03.008Z,0
2023-01-17T03:40:02.946Z,0
2023-01-17T03:41:02.897Z,0
2023-01-17T03:42:02.679Z,0
2023-01-17T03:43:02.451Z,0
2023-01-17T03:44:02.187Z,0
2023-01-17T03:45:02.714Z,0
2023-01-17T03:46:03.160Z,0
2023-01-17T03:47:03.010Z,0
2023-01-17T03:48:03.124Z,0
2023-01-17T03:49:03.041Z,0
2023-01-17T03:50:03.041Z,0
2023-01-17T03:51:03.077Z,0
2023-01-17T03:52:02.967Z,0
2023-01-17T03:53:02.571Z,0
2023-01-17T03:54:02.941Z,0
2023-01-17T03:55:03.112Z,0
2023-01-17T03:56:02.981Z,0
2023-01-17T03:57:02.644Z,0
2023-01-17T03:58:03.160Z,0
2023-01-17T03:59:02.658Z,0
2023-01-17T04:00:03.187Z,0
2023-01-17T04:01:03.450Z,0
2023-01-17T04:02:03.851Z,0
2023-01-17T04:03:03.298Z,0
2023-01-17T04:04:03.360Z,0
2023-01-17T04:05:03.037Z,0
2023-01-17T04:06:03.022Z,0
2023-01-17T04:07:03.019Z,0
2023-01-17T04:08:03.311Z,0
2023-01-17T04:09:03.067Z,0
2023-01-17T04:10:03.316Z,0
2023-01-17T04:11:03.363Z,0
2023-01-17T04:12:03.367Z,0
2023-01-17T04:13:03.378Z,0
2023-01-17T04:14:03.378Z,0
2023-01-17T04:15:03.403Z,0
2023-01-17T04:16:03.425Z,0
2023-01-17T04:17:03.552Z,0
2023-01-17T04:18:03.212Z,0
2023-01-17T04:19:03.243Z,0
2023-01-17T04:20:03.589Z,0
2023-01-17T04:21:03.486Z,0
2023-01-17T04:22:03.255Z,0
2023-01-17T04:23:03.580Z,0
2023-01-17T04:24:03.539Z,0
2023-01-17T04:25:03.572Z,0
2023-01-17T04:26:03.661Z,0
2023-01-17T04:27:03.587Z,0
2023-01-17T04:28:03.656Z,0
2023-01-17T04:29:03.814Z,0
2023-01-17T04:30:03.618Z,0
2023-01-17T04:31:03.884Z,0
2023-01-17T04:32:03.701Z,0
2023-01-17T04:33:03.467Z,0
2023-01-17T04:34:03.476Z,0
2023-01-17T04:35:03.458Z,0
2023-01-17T04:36:03.820Z,0
2023-01-17T04:37:03.491Z,0
2023-01-17T04:38:03.585Z,0
2023-01-17T04:39:03.509Z,0
2023-01-17T04:40:03.522Z,0
2023-01-17T04:41:03.258Z,0
2023-01-17T04:42:03.581Z,0
2023-01-17T04:43:03.827Z,0
2023-01-17T04:44:03.569Z,0
2023-01-17T04:45:03.894Z,0
2023-01-17T04:46:03.898Z,0
2023-01-17T04:47:03.873Z,0
2023-01-17T04:48:03.616Z,0
2023-01-17T04:49:04.021Z,0
2023-01-17T04:50:03.971Z,0
2023-01-17T04:51:03.962Z,0
2023-01-17T04:52:04.059Z,0
2023-01-17T04:53:03.728Z,0
2023-01-17T04:54:03.696Z,0
2023-01-17T04:55:03.734Z,0
2023-01-17T04:56:03.734Z,0
2023-01-17T04:57:03.494Z,0
2023-01-17T04:58:04.080Z,0
2023-01-17T04:59:03.786Z,0
2023-01-17T05:00:03.808Z,0
2023-01-17T05:01:04.116Z,0
2023-01-17T05:02:04.604Z,0
2023-01-17T05:03:04.345Z,0
2023-01-17T05:04:03.919Z,0
2023-01-17T05:05:03.879Z,0
2023-01-17T05:06:03.882Z,0
2023-01-17T05:07:04.161Z,0
2023-01-17T05:08:04.294Z,0
2023-01-17T05:09:03.925Z,0
2023-01-17T05:10:03.933Z,0
2023-01-17T05:11:04.232Z,0
2023-01-17T05:12:03.963Z,0
2023-01-17T05:13:04.079Z,0
2023-01-17T05:14:03.741Z,0
2023-01-17T05:15:03.782Z,0
2023-01-17T05:16:04.325Z,0
2023-01-17T05:17:04.305Z,0
2023-01-17T05:18:04.327Z,0
2023-01-17T05:19:04.331Z,0
2023-01-17T05:20:04.346Z,0
2023-01-17T05:21:04.387Z,0
2023-01-17T05:22:04.376Z,0
2023-01-17T05:23:04.376Z,0
2023-01-17T05:24:04.517Z,0
2023-01-17T05:25:04.430Z,0
2023-01-17T05:26:04.474Z,0
2023-01-17T05:27:04.433Z,0
2023-01-17T05:28:04.202Z,0
2023-01-17T05:29:04.472Z,0
2023-01-17T05:30:04.549Z,0
2023-01-17T05:31:04.875Z,0
2023-01-17T05:32:04.534Z,0
2023-01-17T05:33:04.302Z,0
2023-01-17T05:34:04.546Z,0
2023-01-17T05:35:04.298Z,0
2023-01-17T05:36:04.333Z,0
2023-01-17T05:37:04.664Z,0
2023-01-17T05:38:04.607Z,0
2023-01-17T05:39:04.377Z,0
2023-01-17T05:40:04.738Z,0
2023-01-17T05:41:04.393Z,0
2023-01-17T05:42:04.438Z,0
2023-01-17T05:43:04.638Z,0
2023-01-17T05:44:04.443Z,0
2023-01-17T05:45:04.717Z,0
2023-01-17T05:46:04.945Z,0
2023-01-17T05:47:04.763Z,0
2023-01-17T05:48:04.799Z,0
2023-01-17T05:49:04.513Z,0
2023-01-17T05:50:04.518Z,0
2023-01-17T05:51:04.031Z,0
2023-01-17T05:52:04.858Z,0
2023-01-17T05:53:04.868Z,0
2023-01-17T05:54:04.860Z,0
2023-01-17T05:55:04.603Z,0
2023-01-17T05:56:05.031Z,0
2023-01-17T05:57:04.896Z,0
2023-01-17T05:58:04.960Z,0
2023-01-17T05:59:04.692Z,0
2023-01-17T06:00:05.014Z,0
2023-01-17T06:01:05.111Z,0
2023-01-17T06:02:04.898Z,0
2023-01-17T06:03:04.796Z,0
2023-01-17T06:04:05.013Z,0
2023-01-17T06:05:07.927Z,0
2023-01-17T06:06:05.010Z,0
2023-01-17T06:07:05.054Z,0
2023-01-17T06:08:05.065Z,0
2023-01-17T06:09:04.564Z,0
2023-01-17T06:10:04.581Z,0
2023-01-17T06:11:04.569Z,0
2023-01-17T06:12:05.211Z,0
2023-01-17T06:13:05.126Z,0
2023-01-17T06:14:05.123Z,0
2023-01-17T06:15:05.389Z,0
2023-01-17T06:16:05.176Z,0
2023-01-17T06:17:05.018Z,0
2023-01-17T06:18:04.965Z,0
2023-01-17T06:19:05.207Z,0
2023-01-17T06:20:05.299Z,0
2023-01-17T06:21:05.412Z,0
2023-01-17T06:22:05.339Z,0
2023-01-17T06:23:05.415Z,0
2023-01-17T06:24:06.889Z,0
2023-01-17T06:25:05.029Z,0
2023-01-17T06:26:05.316Z,0
2023-01-17T06:27:05.109Z,0
2023-01-17T06:28:05.531Z,0
2023-01-17T06:29:05.404Z,0
2023-01-17T06:30:05.369Z,0
2023-01-17T06:31:05.279Z,0
2023-01-17T06:32:08.429Z,0
2023-01-17T06:33:05.421Z,0
2023-01-17T06:34:05.402Z,0
2023-01-17T06:35:05.395Z,0
2023-01-17T06:36:05.385Z,0
2023-01-17T06:37:05.476Z,0
2023-01-17T06:38:05.546Z,0
2023-01-17T06:39:05.486Z,0
2023-01-17T06:40:04.727Z,0
2023-01-17T06:41:05.697Z,0
2023-01-17T06:42:05.288Z,0
2023-01-17T06:43:05.570Z,0
2023-01-17T06:44:05.710Z,0
2023-01-17T06:45:05.584Z,0
2023-01-17T06:46:05.402Z,0
2023-01-17T06:47:05.777Z,0
2023-01-17T06:48:05.512Z,0
2023-01-17T06:49:05.642Z,0
2023-01-17T06:50:05.692Z,0
2023-01-17T06:51:05.680Z,0
2023-01-17T06:52:05.067Z,0
2023-01-17T06:53:05.346Z,0
2023-01-17T06:54:05.228Z,0
2023-01-17T06:55:05.470Z,0
2023-01-17T06:56:05.486Z,0
2023-01-17T06:57:05.751Z,0
2023-01-17T06:58:05.799Z,0
2023-01-17T06:59:05.513Z,0
2023-01-17T07:00:05.908Z,0
2023-01-17T07:01:06.207Z,0
2023-01-17T07:02:05.586Z,0
2023-01-17T07:03:05.613Z,0
2023-01-17T07:04:05.810Z,0
2023-01-17T07:05:05.602Z,0
2023-01-17T07:06:05.634Z,0
2023-01-17T07:07:05.641Z,0
2023-01-17T07:08:05.929Z,0
2023-01-17T07:09:05.922Z,0
2023-01-17T07:10:05.999Z,0
2023-01-17T07:11:05.951Z,0
2023-01-17T07:12:05.716Z,0
2023-01-17T07:13:05.747Z,0
2023-01-17T07:14:05.993Z,0
2023-01-17T07:15:05.989Z,0
2023-01-17T07:16:06.411Z,0
2023-01-17T07:17:05.786Z,0
2023-01-17T07:18:05.803Z,0
2023-01-17T07:19:05.873Z,0
2023-01-17T07:20:05.831Z,0
2023-01-17T07:21:05.602Z,0
2023-01-17T07:22:06.265Z,4
2023-01-17T07:23:05.868Z,4
2023-01-17T07:24:05.888Z,4
2023-01-17T07:25:06.202Z,4
2023-01-17T07:26:06.177Z,4
2023-01-17T07:27:05.919Z,4
2023-01-17T07:28:05.942Z,0
2023-01-17T07:29:05.953Z,0
2023-01-17T07:30:06.232Z,0
2023-01-17T07:31:06.409Z,4
2023-01-17T07:32:06.448Z,4
2023-01-17T07:33:05.791Z,4
2023-01-17T07:34:06.049Z,4
2023-01-17T07:35:06.325Z,4
2023-01-17T07:36:06.083Z,4
2023-01-17T07:37:06.362Z,4
2023-01-17T07:38:06.613Z,4
2023-01-17T07:39:08.707Z,0
2023-01-17T07:40:06.423Z,4
2023-01-17T07:41:06.429Z,4
2023-01-17T07:42:06.415Z,4
2023-01-17T07:43:06.405Z,4
2023-01-17T07:44:06.437Z,8
2023-01-17T07:45:06.448Z,4
2023-01-17T07:46:09.249Z,4
2023-01-17T07:47:06.218Z,8
2023-01-17T07:48:06.590Z,4
2023-01-17T07:49:06.395Z,4
2023-01-17T07:50:06.527Z,4
2023-01-17T07:51:06.533Z,8
2023-01-17T07:52:06.529Z,4
2023-01-17T07:53:06.649Z,4
2023-01-17T07:54:06.574Z,4
2023-01-17T07:55:06.089Z,8
2023-01-17T07:56:06.339Z,4
2023-01-17T07:57:06.665Z,4
2023-01-17T07:58:08.978Z,4
2023-01-17T07:59:06.160Z,8
2023-01-17T08:00:06.401Z,8
2023-01-17T08:01:07.456Z,4
2023-01-17T08:02:07.169Z,4
2023-01-17T08:03:05.947Z,8
2023-01-17T08:04:07.118Z,8
2023-01-17T08:05:06.773Z,4
2023-01-17T08:06:06.503Z,8
2023-01-17T08:07:06.504Z,8
2023-01-17T08:08:06.535Z,8
2023-01-17T08:09:06.811Z,12
2023-01-17T08:10:06.868Z,12
2023-01-17T08:11:06.847Z,8
2023-01-17T08:12:07.031Z,8
2023-01-17T08:13:06.634Z,8
2023-01-17T08:14:06.649Z,4
2023-01-17T08:15:06.869Z,4
2023-01-17T08:16:07.195Z,8
2023-01-17T08:17:06.938Z,8
2023-01-17T08:18:06.919Z,12
2023-01-17T08:19:06.677Z,4
2023-01-17T08:20:07.110Z,8
2023-01-17T08:21:06.179Z,8
2023-01-17T08:22:06.715Z,4
2023-01-17T08:23:06.743Z,8
2023-01-17T08:24:07.034Z,8
2023-01-17T08:25:07.019Z,4
2023-01-17T08:26:07.045Z,8
2023-01-17T08:27:06.790Z,4
2023-01-17T08:28:06.279Z,8
2023-01-17T08:29:07.080Z,8
2023-01-17T08:30:07.091Z,12
2023-01-17T08:31:07.158Z,12
2023-01-17T08:32:06.907Z,12
2023-01-17T08:33:07.124Z,12
2023-01-17T08:34:07.183Z,12
2023-01-17T08:35:07.192Z,12
2023-01-17T08:36:07.341Z,12
2023-01-17T08:37:06.951Z,16
2023-01-17T08:38:06.985Z,12
2023-01-17T08:39:07.232Z,16
2023-01-17T08:40:07.021Z,16
2023-01-17T08:41:07.243Z,20
2023-01-17T08:42:07.049Z,20
2023-01-17T08:43:07.079Z,20
2023-01-17T08:44:07.303Z,24
2023-01-17T08:45:07.086Z,24
2023-01-17T08:46:07.362Z,20
2023-01-17T08:47:07.392Z,20
2023-01-17T08:48:07.384Z,20
2023-01-17T08:49:07.216Z,20
2023-01-17T08:50:07.181Z,24
2023-01-17T08:51:06.888Z,28
2023-01-17T08:52:07.522Z,28
2023-01-17T08:53:08.399Z,28
2023-01-17T08:54:07.588Z,32
2023-01-17T08:55:07.478Z,32
2023-01-17T08:56:07.508Z,32
2023-01-17T08:57:07.221Z,32
2023-01-17T08:58:07.016Z,28
2023-01-17T08:59:07.281Z,36
2023-01-17T09:00:07.548Z,24
2023-01-17T09:01:08.208Z,20
2023-01-17T09:02:08.299Z,20
2023-01-17T09:03:07.567Z,24
2023-01-17T09:04:07.357Z,24
2023-01-17T09:05:07.602Z,20
2023-01-17T09:06:07.544Z,32
2023-01-17T09:07:07.393Z,24
2023-01-17T09:08:07.800Z,24
2023-01-17T09:09:07.813Z,24
2023-01-17T09:10:07.193Z,32
2023-01-17T09:11:06.918Z,32
2023-01-17T09:12:08.096Z,48
2023-01-17T09:13:07.219Z,48
2023-01-17T09:14:07.604Z,44
2023-01-17T09:15:07.844Z,56
2023-01-17T09:16:07.891Z,48
2023-01-17T09:17:07.258Z,52
2023-01-17T09:18:07.793Z,40
2023-01-17T09:19:07.823Z,44
2023-01-17T09:20:07.616Z,44
2023-01-17T09:21:07.578Z,40
2023-01-17T09:22:07.848Z,40
2023-01-17T09:23:07.350Z,40
2023-01-17T09:24:08.038Z,36
2023-01-17T09:25:07.620Z,36
2023-01-17T09:26:07.666Z,36
2023-01-17T09:27:07.914Z,32
2023-01-17T09:28:08.005Z,32
2023-01-17T09:29:07.488Z,40
2023-01-17T09:30:07.754Z,40
2023-01-17T09:31:07.903Z,40
2023-01-17T09:32:07.977Z,40
2023-01-17T09:33:07.765Z,40
2023-01-17T09:34:07.757Z,44
2023-01-17T09:35:08.273Z,52
2023-01-17T09:36:08.057Z,56
2023-01-17T09:37:08.061Z,52
2023-01-17T09:38:07.807Z,44
2023-01-17T09:39:08.093Z,40
2023-01-17T09:40:08.220Z,32
2023-01-17T09:41:08.106Z,28
2023-01-17T09:42:08.232Z,28
2023-01-17T09:43:07.872Z,28
2023-01-17T09:44:08.175Z,28
2023-01-17T09:45:07.703Z,28
2023-01-17T09:46:08.255Z,24
2023-01-17T09:47:08.363Z,28
2023-01-17T09:48:07.956Z,28
2023-01-17T09:49:08.266Z,24
2023-01-17T09:50:07.969Z,28
2023-01-17T09:51:08.260Z,24
2023-01-17T09:52:08.282Z,24
2023-01-17T09:53:08.301Z,24
2023-01-17T09:54:08.294Z,28
2023-01-17T09:55:10.559Z,28
2023-01-17T09:56:08.441Z,28
2023-01-17T09:57:08.336Z,20
2023-01-17T09:58:08.083Z,28
2023-01-17T09:59:08.362Z,28
2023-01-17T10:00:11.130Z,40
2023-01-17T10:01:08.902Z,48
2023-01-17T10:02:09.119Z,56
2023-01-17T10:03:08.556Z,64
2023-01-17T10:04:08.399Z,64
2023-01-17T10:05:08.915Z,80
2023-01-17T10:06:08.512Z,88
2023-01-17T10:07:08.510Z,64
2023-01-17T10:08:11.685Z,60
2023-01-17T10:09:08.507Z,64
2023-01-17T10:10:08.262Z,60
2023-01-17T10:11:08.569Z,68
2023-01-17T10:12:09.187Z,60
2023-01-17T10:13:08.319Z,76
2023-01-17T10:14:08.593Z,68
2023-01-17T10:15:08.690Z,64
2023-01-17T10:16:08.677Z,80
2023-01-17T10:17:08.657Z,64
2023-01-17T10:18:09.313Z,72
2023-01-17T10:19:08.434Z,60
2023-01-17T10:20:08.704Z,56
2023-01-17T10:21:08.725Z,52
2023-01-17T10:22:08.208Z,52
2023-01-17T10:23:08.211Z,48
2023-01-17T10:24:08.799Z,44
2023-01-17T10:25:08.491Z,40
2023-01-17T10:26:08.765Z,44
2023-01-17T10:27:08.777Z,40
2023-01-17T10:28:08.903Z,44
2023-01-17T10:29:08.663Z,40
2023-01-17T10:30:08.572Z,40
2023-01-17T10:31:09.179Z,36
2023-01-17T10:32:08.624Z,44
2023-01-17T10:33:08.851Z,48
2023-01-17T10:34:08.609Z,52
2023-01-17T10:35:08.916Z,48
2023-01-17T10:36:08.701Z,48
2023-01-17T10:37:08.669Z,52
2023-01-17T10:38:08.912Z,52
2023-01-17T10:39:08.710Z,52
2023-01-17T10:40:08.740Z,48
2023-01-17T10:41:09.042Z,48
2023-01-17T10:42:08.741Z,44
2023-01-17T10:43:08.517Z,44
2023-01-17T10:44:09.170Z,40
2023-01-17T10:45:08.802Z,44
2023-01-17T10:46:08.957Z,44
2023-01-17T10:47:08.808Z,52
2023-01-17T10:48:09.084Z,44
2023-01-17T10:49:09.080Z,40
2023-01-17T10:50:08.594Z,40
2023-01-17T10:51:08.838Z,40
2023-01-17T10:52:09.143Z,40
2023-01-17T10:53:09.156Z,40
2023-01-17T10:54:09.339Z,48
2023-01-17T10:55:09.191Z,48
2023-01-17T10:56:08.714Z,64
2023-01-17T10:57:09.196Z,80
2023-01-17T10:58:09.215Z,76
2023-01-17T10:59:09.227Z,84
2023-01-17T11:00:09.476Z,92
2023-01-17T11:01:09.700Z,100
2023-01-17T11:02:09.692Z,108
2023-01-17T11:03:09.574Z,108
2023-01-17T11:04:09.068Z,112
2023-01-17T11:05:09.313Z,112
2023-01-17T11:06:09.338Z,108
2023-01-17T11:07:09.359Z,100
2023-01-17T11:08:09.099Z,100
2023-01-17T11:09:09.325Z,104
2023-01-17T11:10:09.462Z,104
2023-01-17T11:11:09.153Z,104
2023-01-17T11:12:09.451Z,100
2023-01-17T11:13:09.168Z,104
2023-01-17T11:14:09.175Z,104
2023-01-17T11:15:09.479Z,96
2023-01-17T11:16:10.139Z,80
2023-01-17T11:17:09.272Z,52
2023-01-17T11:18:09.532Z,44
2023-01-17T11:19:09.034Z,44
2023-01-17T11:20:09.553Z,40
2023-01-17T11:21:09.708Z,36
2023-01-17T11:22:09.364Z,36
2023-01-17T11:23:09.734Z,32
2023-01-17T11:24:09.623Z,36
2023-01-17T11:25:09.434Z,32
2023-01-17T11:26:09.440Z,40
2023-01-17T11:27:09.379Z,40
2023-01-17T11:28:09.679Z,44
2023-01-17T11:29:09.397Z,48
2023-01-17T11:30:09.615Z,56
2023-01-17T11:31:09.739Z,60
2023-01-17T11:32:09.827Z,60
2023-01-17T11:33:09.742Z,60
2023-01-17T11:34:09.730Z,64
2023-01-17T11:35:09.501Z,56
2023-01-17T11:36:09.767Z,56
2023-01-17T11:37:09.580Z,56
2023-01-17T11:38:09.330Z,60
2023-01-17T11:39:09.587Z,60
2023-01-17T11:40:09.833Z,60
2023-01-17T11:41:09.316Z,68
2023-01-17T11:42:09.330Z,76
2023-01-17T11:43:09.654Z,80
2023-01-17T11:44:09.882Z,84
2023-01-17T11:45:09.903Z,80
2023-01-17T11:46:09.955Z,80
2023-01-17T11:47:09.431Z,80
2023-01-17T11:48:10.079Z,84
2023-01-17T11:49:09.954Z,84
2023-01-17T11:50:09.988Z,84
2023-01-17T11:51:09.728Z,84
2023-01-17T11:52:09.976Z,76
2023-01-17T11:53:09.504Z,76
2023-01-17T11:54:10.036Z,80
2023-01-17T11:55:09.952Z,136
2023-01-17T11:56:09.691Z,80
2023-01-17T11:57:10.330Z,76
2023-01-17T11:58:09.979Z,80
2023-01-17T11:59:10.248Z,72
2023-01-17T12:00:10.158Z,72
2023-01-17T12:01:10.168Z,76
2023-01-17T12:02:10.056Z,72
2023-01-17T12:03:09.997Z,72
2023-01-17T12:04:10.501Z,76
2023-01-17T12:05:09.729Z,120
2023-01-17T12:06:10.246Z,192
2023-01-17T12:07:10.006Z,168
2023-01-17T12:08:09.706Z,196
2023-01-17T12:09:10.438Z,204
2023-01-17T12:10:10.146Z,232
2023-01-17T12:11:10.049Z,236
2023-01-17T12:12:11.474Z,240
2023-01-17T12:13:10.063Z,240
2023-01-17T12:14:10.107Z,232
2023-01-17T12:15:10.067Z,212
2023-01-17T12:16:10.024Z,188
2023-01-17T12:17:10.400Z,208
2023-01-17T12:18:10.362Z,216
2023-01-17T12:19:10.387Z,220
2023-01-17T12:20:10.529Z,200
2023-01-17T12:21:10.400Z,212
2023-01-17T12:22:10.425Z,204
2023-01-17T12:23:10.520Z,208
2023-01-17T12:24:10.403Z,176
2023-01-17T12:25:10.319Z,200
2023-01-17T12:26:10.261Z,216
2023-01-17T12:27:10.238Z,244
2023-01-17T12:28:10.510Z,224
2023-01-17T12:29:10.026Z,256
2023-01-17T12:30:10.672Z,232
2023-01-17T12:31:10.637Z,224
2023-01-17T12:32:10.572Z,220
2023-01-17T12:33:10.125Z,228
2023-01-17T12:34:12.999Z,216
2023-01-17T12:35:10.369Z,212
2023-01-17T12:36:10.791Z,204
2023-01-17T12:37:10.419Z,76
2023-01-17T12:38:23.833Z,100
2023-01-17T12:39:10.467Z,64
2023-01-17T12:40:10.795Z,56
2023-01-17T12:41:10.437Z,64
2023-01-17T12:42:10.508Z,76
2023-01-17T12:43:10.716Z,80
2023-01-17T12:44:10.474Z,76
2023-01-17T12:45:10.785Z,76
2023-01-17T12:46:10.647Z,68
2023-01-17T12:47:10.789Z,64
2023-01-17T12:48:10.527Z,84
2023-01-17T12:49:10.819Z,68
2023-01-17T12:50:10.851Z,64
2023-01-17T12:51:10.859Z,68
2023-01-17T12:52:10.971Z,68
2023-01-17T12:53:10.607Z,68
2023-01-17T12:54:10.622Z,64
2023-01-17T12:55:10.623Z,68
2023-01-17T12:56:10.648Z,72
2023-01-17T12:57:13.191Z,72
2023-01-17T12:58:10.706Z,72
2023-01-17T12:59:10.752Z,76
2023-01-17T13:00:11.008Z,72
2023-01-17T13:01:11.487Z,68
2023-01-17T13:02:11.179Z,68
2023-01-17T13:03:10.518Z,68
2023-01-17T13:04:10.770Z,76
2023-01-17T13:05:11.029Z,80
2023-01-17T13:06:10.593Z,80
2023-01-17T13:07:11.145Z,88
2023-01-17T13:08:11.186Z,108
2023-01-17T13:09:11.116Z,224
2023-01-17T13:10:11.158Z,236
2023-01-17T13:11:11.130Z,92
2023-01-17T13:12:11.353Z,136
2023-01-17T13:13:10.897Z,144
2023-01-17T13:14:11.178Z,88
2023-01-17T13:15:11.200Z,64
2023-01-17T13:16:11.478Z,64
2023-01-17T13:17:10.957Z,60
2023-01-17T13:18:10.979Z,56
2023-01-17T13:19:10.771Z,56
2023-01-17T13:20:11.302Z,56
2023-01-17T13:21:11.021Z,52
2023-01-17T13:22:11.064Z,52
2023-01-17T13:23:11.309Z,136
2023-01-17T13:24:11.524Z,208
2023-01-17T13:25:11.073Z,68
2023-01-17T13:26:11.088Z,84
2023-01-17T13:27:11.372Z,92
2023-01-17T13:28:11.376Z,192
2023-01-17T13:29:11.129Z,200
2023-01-17T13:30:11.421Z,340
2023-01-17T13:31:11.039Z,96
2023-01-17T13:32:11.176Z,152
2023-01-17T13:33:11.190Z,272
2023-01-17T13:34:11.225Z,272
2023-01-17T13:35:11.226Z,248
2023-01-17T13:36:11.501Z,220
2023-01-17T13:37:11.542Z,84
2023-01-17T13:38:11.268Z,60
2023-01-17T13:39:11.549Z,60
2023-01-17T13:40:11.811Z,60
2023-01-17T13:41:11.361Z,52
2023-01-17T13:42:11.060Z,68
2023-01-17T13:43:11.595Z,92
2023-01-17T13:44:11.604Z,56
2023-01-17T13:45:11.662Z,52
2023-01-17T13:46:12.021Z,56
2023-01-17T13:47:11.687Z,64
2023-01-17T13:48:11.131Z,64
2023-01-17T13:49:11.675Z,60
2023-01-17T13:50:11.457Z,52
2023-01-17T13:51:11.714Z,48
2023-01-17T13:52:11.472Z,52
2023-01-17T13:53:11.471Z,52
2023-01-17T13:54:12.368Z,52
2023-01-17T13:55:11.771Z,52
2023-01-17T13:56:11.909Z,48
2023-01-17T13:57:11.780Z,40
2023-01-17T13:58:11.353Z,40
2023-01-17T13:59:11.599Z,44
2023-01-17T14:00:11.956Z,40
2023-01-17T14:01:12.226Z,44
2023-01-17T14:02:11.867Z,44
2023-01-17T14:03:11.748Z,52
2023-01-17T14:04:11.685Z,52
2023-01-17T14:05:11.708Z,52
2023-01-17T14:06:11.456Z,56
2023-01-17T14:07:11.712Z,56
2023-01-17T14:08:11.707Z,48
2023-01-17T14:09:11.987Z,48
2023-01-17T14:10:11.826Z,44
2023-01-17T14:11:14.681Z,36
2023-01-17T14:12:12.357Z,40
2023-01-17T14:13:11.784Z,40
2023-01-17T14:14:11.767Z,44
2023-01-17T14:15:12.036Z,44
2023-01-17T14:16:11.951Z,40
2023-01-17T14:17:11.807Z,40
2023-01-17T14:18:11.603Z,36
2023-01-17T14:19:11.880Z,36
2023-01-17T14:20:12.262Z,36
2023-01-17T14:21:12.164Z,32
2023-01-17T14:22:11.916Z,32
2023-01-17T14:23:11.628Z,32
2023-01-17T14:24:11.679Z,32
2023-01-17T14:25:12.034Z,28
2023-01-17T14:26:12.017Z,32
2023-01-17T14:27:12.254Z,28
2023-01-17T14:28:12.368Z,28
2023-01-17T14:29:12.006Z,28
2023-01-17T14:30:12.061Z,28
2023-01-17T14:31:11.760Z,28
2023-01-17T14:32:12.343Z,28